Terminal Aerodrome Forecast
Issued by NWS

Home | Current Version | Previous Version | Graphics & Text | Print | Product List | Glossary On
Versions: 1 2 3 4 5 6 7 8 9 10 11 12 13 14 15 16
000
FTUS43 KICT 311127
TAFSLN
TAF
KSLN 311127Z 3112/0112 VRB03KT P6SM SKC
     FM311600 11011KT P6SM SCT030
     FM010500 11008KT P6SM BKN050
     FM010900 14005KT P6SM VCSH BKN035=

USA.gov is the U.S. government's official web portal to all federal, state and local government web resources and services.